Time;durP1;ratioP1;P1;durP2;ratioP2;P2;SDS_P1;SDS_P2;PMS_P1;PMS_P2;Temp;Humidity;BMP_temperature;BMP_pressure;BME280_temperature;BME280_humidity;BME280_pressure;Samples;Min_cycle;Max_cycle;Signal;HPM_P1;HPM_P2
2022/05/22 00:02:01;;;;;;;8.70;7.30;;;19.50;99.90;;;;;;5023748;28;20045;-79
2022/05/22 00:04:27;;;;;;;10.65;7.13;;;19.50;99.90;;;;;;5029664;28;20036;-79
2022/05/22 00:06:52;;;;;;;8.15;7.35;;;19.40;99.90;;;;;;5022196;28;20064;-79
2022/05/22 00:09:18;;;;;;;11.50;7.43;;;19.40;99.90;;;;;;5044751;28;20032;-79
2022/05/22 00:11:44;;;;;;;14.90;7.47;;;19.30;99.90;;;;;;5023193;28;20036;-79
2022/05/22 00:14:11;;;;;;;9.60;7.00;;;19.30;99.90;;;;;;5043937;28;20025;-79
2022/05/22 00:16:41;;;;;;;11.45;7.90;;;19.30;99.90;;;;;;5038958;28;20021;-79
2022/05/22 00:19:09;;;;;;;10.80;7.38;;;19.30;99.90;;;;;;5025265;28;20086;-80
2022/05/22 00:21:36;;;;;;;10.60;7.85;;;19.30;99.90;;;;;;5044692;28;20484;-79
2022/05/22 00:24:03;;;;;;;11.27;7.78;;;19.30;99.90;;;;;;5019796;28;20036;-78
2022/05/22 00:26:29;;;;;;;13.80;7.57;;;19.30;99.90;;;;;;5019245;28;20021;-79
2022/05/22 00:28:55;;;;;;;17.92;8.13;;;19.20;99.90;;;;;;5038868;28;20033;-79
2022/05/22 00:31:21;;;;;;;11.32;7.28;;;19.30;99.90;;;;;;5041003;28;20021;-78
2022/05/22 00:33:47;;;;;;;8.82;7.07;;;19.20;99.90;;;;;;5034816;28;20075;-79
2022/05/22 00:36:13;;;;;;;15.50;6.70;;;19.20;99.90;;;;;;5019645;28;20021;-79
2022/05/22 00:38:38;;;;;;;11.95;6.50;;;19.10;99.90;;;;;;5022173;28;20041;-79
2022/05/22 00:41:06;;;;;;;10.13;6.63;;;19.10;99.90;;;;;;5035850;28;20041;-79
2022/05/22 00:43:39;;;;;;;9.23;6.55;;;19.10;99.90;;;;;;5042163;28;20055;-79
2022/05/22 00:46:08;;;;;;;7.60;6.90;;;19.10;99.90;;;;;;5036325;28;20035;-79
2022/05/22 00:48:34;;;;;;;10.38;6.70;;;19.10;99.90;;;;;;5020440;28;20074;-78
2022/05/22 00:51:04;;;;;;;9.20;6.57;;;19.10;99.90;;;;;;5035335;28;20103;-78
2022/05/22 00:53:33;;;;;;;10.05;7.40;;;19.10;99.90;;;;;;5040311;28;20472;-78
2022/05/22 00:56:01;;;;;;;8.20;6.55;;;19.10;99.90;;;;;;5020132;28;20044;-78
2022/05/22 00:58:30;;;;;;;9.02;6.63;;;19.10;99.90;;;;;;5040811;28;20498;-78
2022/05/22 01:00:56;;;;;;;8.00;6.50;;;19.10;99.90;;;;;;5041036;28;20032;-78
2022/05/22 01:03:29;;;;;;;7.78;6.70;;;19.10;99.90;;;;;;5042235;28;20021;-79
2022/05/22 01:06:06;;;;;;;7.00;6.30;;;19.20;99.90;;;;;;5016596;28;20030;-80
2022/05/22 01:08:33;;;;;;;8.57;6.25;;;19.10;99.90;;;;;;5041425;28;20029;-81
2022/05/22 01:11:04;;;;;;;11.05;6.32;;;19.10;99.90;;;;;;5046117;28;20387;-78
2022/05/22 01:13:33;;;;;;;9.38;6.40;;;19.10;99.90;;;;;;5040989;28;20051;-79
2022/05/22 01:15:59;;;;;;;14.77;6.03;;;19.10;99.90;;;;;;5041880;28;20022;-78
2022/05/22 01:18:28;;;;;;;7.82;6.18;;;19.10;99.90;;;;;;5038949;28;20027;-79
2022/05/22 01:20:54;;;;;;;9.38;5.82;;;19.10;99.90;;;;;;5015712;28;20578;-79
2022/05/22 01:23:24;;;;;;;7.07;5.68;;;19.00;99.90;;;;;;5036826;28;20087;-79
2022/05/22 01:25:51;;;;;;;7.53;5.93;;;19.00;99.90;;;;;;5015573;28;20112;-78
2022/05/22 01:28:19;;;;;;;8.52;5.88;;;19.00;99.90;;;;;;5035542;28;20025;-79
2022/05/22 01:30:45;;;;;;;9.98;6.32;;;19.00;99.90;;;;;;5033986;28;20383;-79
2022/05/22 01:33:11;;;;;;;8.00;5.53;;;19.00;99.90;;;;;;5041708;28;20096;-79
2022/05/22 01:35:37;;;;;;;12.05;6.93;;;19.00;99.90;;;;;;5024535;28;20108;-79
2022/05/22 01:38:04;;;;;;;7.57;6.53;;;19.00;99.90;;;;;;5020242;28;20029;-79
2022/05/22 01:40:30;;;;;;;7.72;6.85;;;18.90;99.90;;;;;;5042804;28;20009;-79
2022/05/22 01:42:55;;;;;;;7.85;7.05;;;18.90;99.90;;;;;;5041234;28;20427;-79
2022/05/22 01:45:24;;;;;;;9.02;7.20;;;18.80;99.90;;;;;;5023712;28;20017;-79
2022/05/22 01:47:50;;;;;;;7.70;6.82;;;18.80;99.90;;;;;;5041403;28;20064;-79
2022/05/22 01:50:16;;;;;;;8.55;7.10;;;18.80;99.90;;;;;;5040118;28;20045;-78
2022/05/22 01:52:42;;;;;;;7.78;7.00;;;18.80;99.90;;;;;;5040862;28;20068;-78
2022/05/22 01:55:10;;;;;;;10.98;6.88;;;18.80;99.90;;;;;;5026051;28;20029;-79
2022/05/22 01:57:37;;;;;;;7.50;6.57;;;18.80;99.90;;;;;;5029978;28;20108;-79
2022/05/22 02:00:05;;;;;;;8.35;7.00;;;18.80;99.90;;;;;;5036940;28;20032;-78
2022/05/22 02:02:31;;;;;;;9.55;7.07;;;18.70;99.90;;;;;;5037538;28;20040;-79
2022/05/22 02:04:59;;;;;;;8.95;7.22;;;18.70;99.90;;;;;;5025216;28;20392;-79
2022/05/22 02:10:09;;;;;;;8.05;6.82;;;18.70;99.90;;;;;;5034134;28;20399;-79
2022/05/22 02:12:35;;;;;;;7.70;6.90;;;18.70;99.90;;;;;;5039813;28;20025;-78
2022/05/22 02:15:01;;;;;;;8.32;7.30;;;18.70;99.90;;;;;;5037235;28;20048;-79
2022/05/22 02:17:27;;;;;;;10.05;7.38;;;18.60;99.90;;;;;;5041089;28;20507;-79
2022/05/22 02:19:53;;;;;;;11.55;7.28;;;18.60;99.90;;;;;;5020337;28;20100;-79
2022/05/22 02:22:19;;;;;;;10.57;7.15;;;18.60;99.90;;;;;;5038069;28;20036;-79
2022/05/22 02:24:50;;;;;;;9.95;6.60;;;18.60;99.90;;;;;;5038666;28;20068;-79
2022/05/22 02:27:16;;;;;;;11.10;6.57;;;18.60;99.90;;;;;;5040133;28;20040;-79
2022/05/22 02:29:42;;;;;;;8.98;6.72;;;18.60;99.90;;;;;;5036608;28;20029;-79
2022/05/22 02:32:11;;;;;;;9.63;6.57;;;18.60;99.90;;;;;;5040593;28;20035;-79
2022/05/22 02:34:37;;;;;;;7.25;6.55;;;18.50;99.90;;;;;;5017837;28;20034;-79
2022/05/22 02:37:03;;;;;;;8.38;5.97;;;18.50;99.90;;;;;;5038925;28;20034;-80
2022/05/22 02:39:30;;;;;;;12.07;7.15;;;18.50;99.90;;;;;;5044512;28;20021;-78
2022/05/22 02:42:02;;;;;;;10.27;6.53;;;18.50;99.90;;;;;;5037068;28;20041;-79
2022/05/22 02:44:28;;;;;;;12.95;6.63;;;18.50;99.90;;;;;;5016699;28;20048;-80
2022/05/22 02:46:54;;;;;;;9.85;6.57;;;18.40;99.90;;;;;;5036092;28;20034;-81
2022/05/22 02:49:19;;;;;;;10.05;6.78;;;18.40;99.90;;;;;;5026757;28;20056;-79
2022/05/22 02:51:45;;;;;;;9.40;6.97;;;18.40;99.90;;;;;;5040615;28;20033;-78
2022/05/22 02:54:11;;;;;;;7.55;6.78;;;18.40;99.90;;;;;;5039554;28;20021;-81
2022/05/22 02:56:36;;;;;;;9.57;7.13;;;18.40;99.90;;;;;;5021473;28;20052;-78
2022/05/22 02:59:02;;;;;;;6.60;6.00;;;18.40;99.90;;;;;;5019345;28;20124;-80
2022/05/22 03:01:28;;;;;;;9.18;6.88;;;18.50;99.90;;;;;;5036913;28;20037;-81
2022/05/22 03:03:54;;;;;;;6.78;6.18;;;18.50;99.90;;;;;;5041577;28;20051;-81
2022/05/22 03:06:38;;;;;;;7.43;6.32;;;18.60;99.90;;;;;;5040402;28;20026;-79
2022/05/22 03:09:05;;;;;;;8.75;7.65;;;18.50;99.90;;;;;;5042589;28;20053;-79
2022/05/22 03:11:31;;;;;;;10.07;7.20;;;18.60;99.90;;;;;;5036866;28;20040;-80
2022/05/22 03:13:57;;;;;;;9.73;7.22;;;18.60;99.90;;;;;;5042107;28;20025;-79
2022/05/22 03:16:22;;;;;;;8.93;6.57;;;18.60;99.90;;;;;;5037670;28;20546;-79
2022/05/22 03:18:48;;;;;;;12.63;7.22;;;18.50;99.90;;;;;;5023490;28;20025;-78
2022/05/22 03:21:15;;;;;;;11.32;7.22;;;18.50;99.90;;;;;;5024633;28;20120;-78
2022/05/22 03:23:40;;;;;;;10.40;7.53;;;18.50;99.90;;;;;;5041985;28;20468;-78
2022/05/22 03:26:06;;;;;;;12.13;7.45;;;18.40;99.90;;;;;;5041230;28;20068;-78
2022/05/22 03:28:32;;;;;;;11.85;7.30;;;18.40;99.90;;;;;;5039279;28;20100;-78
2022/05/22 03:30:58;;;;;;;8.93;7.10;;;18.40;99.90;;;;;;5039016;28;20104;-78
2022/05/22 03:33:24;;;;;;;12.70;6.80;;;18.40;99.90;;;;;;5041857;28;20022;-77
2022/05/22 03:35:50;;;;;;;10.63;7.03;;;18.40;99.90;;;;;;5035657;28;20548;-80
2022/05/22 03:38:16;;;;;;;8.80;7.55;;;18.30;99.90;;;;;;5044567;28;20104;-78
2022/05/22 03:40:47;;;;;;;7.47;6.78;;;18.40;99.90;;;;;;5044727;28;20112;-78
2022/05/22 03:43:15;;;;;;;11.55;7.68;;;18.30;99.90;;;;;;5036966;28;20099;-78
2022/05/22 03:45:42;;;;;;;7.95;7.15;;;18.30;99.90;;;;;;5019051;28;20029;-78
2022/05/22 03:48:08;;;;;;;13.15;7.57;;;18.40;99.90;;;;;;5042004;28;20037;-78
2022/05/22 03:50:34;;;;;;;10.15;7.55;;;18.50;99.90;;;;;;5043417;28;20065;-78
2022/05/22 03:53:01;;;;;;;10.07;7.28;;;18.50;99.90;;;;;;5040577;28;20077;-77
2022/05/22 03:55:27;;;;;;;20.35;7.55;;;18.50;99.90;;;;;;5035677;28;20383;-78
2022/05/22 03:57:53;;;;;;;10.48;6.95;;;18.50;99.90;;;;;;5040473;28;20029;-78
2022/05/22 04:00:22;;;;;;;10.02;7.13;;;18.50;99.90;;;;;;5021506;28;20025;-78
2022/05/22 04:02:47;;;;;;;11.00;6.72;;;18.60;99.90;;;;;;5040998;28;20030;-77
2022/05/22 04:05:13;;;;;;;8.88;7.38;;;18.60;99.90;;;;;;5037646;28;20095;-78
2022/05/22 04:07:43;;;;;;;9.23;6.88;;;18.70;99.90;;;;;;5022559;28;20037;-78
2022/05/22 04:10:11;;;;;;;8.02;6.57;;;18.90;99.90;;;;;;5035637;28;20017;-78
2022/05/22 04:12:38;;;;;;;8.88;7.13;;;18.90;99.90;;;;;;5039724;28;20026;-78
2022/05/22 04:15:06;;;;;;;7.20;6.40;;;19.00;99.90;;;;;;5046110;28;20056;-78
2022/05/22 04:17:31;;;;;;;8.57;7.05;;;19.10;99.90;;;;;;5040989;28;20021;-79
2022/05/22 04:19:57;;;;;;;9.25;7.20;;;19.20;99.90;;;;;;5045362;28;20439;-79
2022/05/22 04:22:23;;;;;;;7.30;6.47;;;19.30;99.90;;;;;;5041719;28;20068;-79
2022/05/22 04:27:40;;;;;;;10.98;6.18;;;19.50;99.90;;;;;;5042693;28;20083;-78
2022/05/22 04:30:08;;;;;;;9.73;6.95;;;19.50;99.90;;;;;;5036030;28;20005;-78
2022/05/22 04:32:34;;;;;;;8.32;6.60;;;19.60;99.90;;;;;;5041401;28;20032;-79
2022/05/22 04:34:59;;;;;;;9.70;6.50;;;19.60;99.90;;;;;;5036800;28;20392;-78
2022/05/22 04:37:25;;;;;;;12.85;6.20;;;19.60;99.90;;;;;;5042139;28;20036;-79
2022/05/22 04:39:51;;;;;;;14.35;6.88;;;19.80;99.90;;;;;;5036968;28;20025;-78
2022/05/22 04:42:16;;;;;;;12.50;8.48;;;19.90;99.90;;;;;;5040467;28;20036;-79
2022/05/22 04:44:43;;;;;;;11.32;8.00;;;19.90;99.90;;;;;;5018571;28;20109;-78
2022/05/22 04:47:11;;;;;;;12.95;8.20;;;19.80;99.90;;;;;;5023451;28;20396;-77
2022/05/22 04:49:36;;;;;;;10.02;6.28;;;19.80;99.90;;;;;;5037440;28;20451;-79
2022/05/22 04:52:03;;;;;;;7.50;6.60;;;20.00;99.90;;;;;;5023492;28;20033;-80
2022/05/22 04:54:29;;;;;;;11.50;7.00;;;20.10;99.90;;;;;;5035857;28;20091;-77
2022/05/22 04:56:54;;;;;;;9.45;6.70;;;20.20;99.90;;;;;;5037914;28;20021;-80
2022/05/22 04:59:20;;;;;;;7.03;5.75;;;20.20;99.90;;;;;;5042233;28;20475;-80
2022/05/22 05:01:46;;;;;;;9.10;5.65;;;20.30;99.90;;;;;;5040031;28;20029;-80
2022/05/22 05:04:15;;;;;;;13.88;5.00;;;20.50;99.90;;;;;;5037940;28;20033;-80
2022/05/22 05:06:43;;;;;;;7.28;4.93;;;20.60;99.90;;;;;;5035362;28;20025;-80
2022/05/22 05:09:09;;;;;;;9.38;5.32;;;20.90;99.90;;;;;;5042370;28;20059;-78
2022/05/22 05:11:34;;;;;;;6.88;5.03;;;20.90;99.90;;;;;;5036205;28;20065;-80
2022/05/22 05:14:00;;;;;;;6.15;4.57;;;21.10;99.90;;;;;;5040349;28;20369;-80
2022/05/22 05:16:26;;;;;;;9.57;5.43;;;21.20;99.90;;;;;;5019341;28;20099;-80
2022/05/22 05:18:51;;;;;;;9.05;4.70;;;21.30;99.90;;;;;;5041043;28;20079;-80
2022/05/22 05:21:18;;;;;;;8.82;4.93;;;21.40;99.90;;;;;;5037061;28;20032;-80
2022/05/22 05:23:47;;;;;;;6.32;4.75;;;21.50;99.90;;;;;;5040879;28;20037;-79
2022/05/22 05:26:13;;;;;;;11.48;5.35;;;21.70;99.90;;;;;;5024482;28;20064;-78
2022/05/22 05:28:39;;;;;;;10.60;5.35;;;21.80;99.90;;;;;;5022138;28;20032;-80
2022/05/22 05:31:04;;;;;;;10.55;4.93;;;21.80;99.90;;;;;;5020101;28;20211;-80
2022/05/22 05:33:33;;;;;;;8.32;5.25;;;21.90;99.90;;;;;;5041631;28;20490;-80
2022/05/22 05:36:00;;;;;;;5.03;4.32;;;22.00;99.90;;;;;;5040903;28;20029;-85
2022/05/22 05:38:26;;;;;;;6.55;4.57;;;22.10;99.90;;;;;;5038867;28;20404;-83
2022/05/22 05:40:52;;;;;;;9.10;5.72;;;22.10;99.90;;;;;;5019023;28;20094;-83
2022/05/22 05:43:19;;;;;;;11.15;5.10;;;22.20;99.90;;;;;;5037009;28;20475;-81
2022/05/22 05:45:47;;;;;;;7.95;4.57;;;22.30;99.90;;;;;;5020277;28;20025;-81
2022/05/22 05:48:13;;;;;;;6.97;4.70;;;22.30;99.90;;;;;;5024262;28;20028;-82
2022/05/22 05:50:42;;;;;;;10.50;5.00;;;22.40;99.90;;;;;;5040976;28;20045;-83
2022/05/22 05:53:07;;;;;;;6.93;4.60;;;22.40;99.90;;;;;;5023858;28;20429;-84
2022/05/22 05:55:33;;;;;;;7.50;4.53;;;22.60;99.90;;;;;;5034441;28;20115;-81
2022/05/22 05:58:00;;;;;;;5.85;4.13;;;22.80;99.90;;;;;;5040050;28;20028;-79
2022/05/22 06:00:26;;;;;;;5.15;4.57;;;22.90;99.90;;;;;;5040905;28;20013;-79
2022/05/22 06:02:52;;;;;;;6.80;4.85;;;23.00;99.90;;;;;;5040369;28;20029;-80
2022/05/22 06:05:21;;;;;;;6.75;4.43;;;23.10;99.90;;;;;;5039773;28;20017;-80
2022/05/22 06:07:51;;;;;;;8.05;4.38;;;23.20;99.90;;;;;;5036512;28;20025;-80
2022/05/22 06:10:19;;;;;;;8.60;3.90;;;23.40;99.90;;;;;;5035654;28;20022;-80
2022/05/22 06:12:46;;;;;;;6.75;4.03;;;23.60;99.90;;;;;;5034240;28;20026;-80
2022/05/22 06:15:13;;;;;;;5.82;4.07;;;23.60;99.90;;;;;;5026097;28;20033;-80
2022/05/22 06:17:43;;;;;;;8.55;4.20;;;23.60;99.90;;;;;;5038447;28;20698;-80
2022/05/22 06:20:12;;;;;;;6.97;3.70;;;23.70;99.90;;;;;;5045585;28;20029;-80
2022/05/22 06:22:38;;;;;;;7.22;3.97;;;23.70;99.90;;;;;;5041306;28;20120;-80
2022/05/22 06:25:06;;;;;;;6.93;4.00;;;23.90;99.90;;;;;;5018312;28;20121;-80
2022/05/22 06:27:32;;;;;;;5.80;3.55;;;23.90;99.90;;;;;;5036720;28;20096;-80
2022/05/22 06:30:01;;;;;;;4.18;3.38;;;24.00;99.90;;;;;;5035651;28;20526;-80
2022/05/22 06:32:27;;;;;;;7.78;3.47;;;24.10;99.90;;;;;;5018984;28;20099;-80
2022/05/22 06:34:53;;;;;;;3.83;3.42;;;24.10;99.90;;;;;;5037199;28;20028;-80
2022/05/22 06:37:21;;;;;;;7.38;3.65;;;24.20;99.90;;;;;;5042779;28;20029;-80
2022/05/22 06:39:51;;;;;;;4.63;3.58;;;24.30;99.90;;;;;;5033885;28;20032;-80
2022/05/22 06:42:39;;;;;;;7.82;3.55;;;24.40;99.90;;;;;;5039803;28;20126;-80
2022/05/22 06:45:05;;;;;;;7.03;3.22;;;24.50;99.90;;;;;;5037309;28;20029;-80
2022/05/22 06:47:32;;;;;;;4.57;2.78;;;24.60;99.90;;;;;;5039778;28;20017;-80
2022/05/22 06:49:58;;;;;;;3.13;2.63;;;24.70;99.90;;;;;;5043134;28;20041;-80
2022/05/22 06:52:25;;;;;;;4.05;2.45;;;24.80;99.90;;;;;;5037564;28;20087;-80
2022/05/22 06:54:51;;;;;;;3.63;2.80;;;24.80;99.90;;;;;;5043885;28;20113;-80
2022/05/22 06:57:23;;;;;;;5.10;2.88;;;24.90;99.90;;;;;;5025318;28;20036;-81
2022/05/22 06:59:53;;;;;;;7.37;2.30;;;24.90;99.90;;;;;;5048465;28;20560;-81
2022/05/22 07:02:19;;;;;;;6.90;2.50;;;25.10;99.90;;;;;;5040760;28;20330;-81
2022/05/22 07:04:45;;;;;;;7.43;2.50;;;25.20;99.90;;;;;;5042894;28;20448;-81
2022/05/22 07:07:11;;;;;;;6.20;2.85;;;25.40;99.90;;;;;;5043593;28;20049;-81
2022/05/22 07:09:36;;;;;;;2.83;2.35;;;25.50;99.90;;;;;;5047729;28;20021;-82
2022/05/22 07:12:06;;;;;;;9.32;3.10;;;25.70;99.90;;;;;;5038589;28;20395;-80
2022/05/22 07:14:33;;;;;;;3.33;2.42;;;25.80;99.90;;;;;;5027141;28;20160;-81
2022/05/22 07:17:02;;;;;;;5.65;2.60;;;25.90;99.90;;;;;;5024869;28;20400;-81
2022/05/22 07:19:28;;;;;;;3.47;2.60;;;25.90;99.90;;;;;;5026552;28;20099;-81
2022/05/22 07:21:53;;;;;;;2.95;2.67;;;26.00;99.90;;;;;;5017762;28;20488;-81
2022/05/22 07:24:19;;;;;;;3.70;2.55;;;25.90;99.90;;;;;;5039268;28;20030;-81
2022/05/22 07:26:45;;;;;;;6.32;2.58;;;25.90;99.90;;;;;;5024442;28;20059;-82
2022/05/22 07:29:11;;;;;;;3.92;2.65;;;26.00;99.90;;;;;;5029068;28;20424;-81
2022/05/22 07:31:39;;;;;;;8.45;2.85;;;26.00;99.90;;;;;;5021246;28;20033;-81
2022/05/22 07:34:05;;;;;;;11.38;2.97;;;26.10;99.90;;;;;;5020000;28;20468;-80
2022/05/22 07:36:31;;;;;;;4.03;2.50;;;26.10;99.90;;;;;;5043317;28;20423;-80
2022/05/22 07:38:57;;;;;;;7.97;2.50;;;26.20;99.90;;;;;;5044082;28;20028;-81
2022/05/22 07:41:23;;;;;;;7.95;2.28;;;26.40;99.90;;;;;;5025341;28;20036;-81
2022/05/22 07:43:49;;;;;;;8.05;2.42;;;26.50;99.90;;;;;;5040271;28;20029;-81
2022/05/22 07:46:15;;;;;;;4.20;2.42;;;26.70;99.90;;;;;;5024955;28;20487;-81
2022/05/22 07:48:42;;;;;;;7.18;2.88;;;26.80;99.90;;;;;;5024742;28;20021;-81
2022/05/22 07:51:09;;;;;;;5.43;2.67;;;26.90;99.90;;;;;;5024622;28;20563;-81
2022/05/22 07:53:35;;;;;;;16.08;2.40;;;26.90;99.90;;;;;;5044540;28;20579;-82
2022/05/22 07:56:04;;;;;;;5.60;2.70;;;26.80;99.90;;;;;;5045997;28;20029;-84
2022/05/22 07:58:31;;;;;;;6.97;2.60;;;26.80;99.90;;;;;;5022838;28;20017;-82
2022/05/22 08:00:58;;;;;;;5.72;2.60;;;26.70;99.90;;;;;;5038815;28;20030;-81
2022/05/22 08:03:24;;;;;;;5.00;2.80;;;26.70;99.90;;;;;;5025972;28;20025;-81
2022/05/22 08:05:51;;;;;;;7.82;3.72;;;26.60;99.90;;;;;;5043676;28;20502;-81
2022/05/22 08:08:17;;;;;;;4.30;2.70;;;26.60;99.90;;;;;;5035395;28;20096;-81
2022/05/22 08:10:45;;;;;;;4.00;2.38;;;26.60;99.90;;;;;;5035381;28;20104;-81
2022/05/22 08:13:14;;;;;;;5.18;2.50;;;26.70;99.90;;;;;;5041124;28;20051;-81
2022/05/22 08:15:41;;;;;;;7.55;3.28;;;26.60;99.90;;;;;;5028954;28;20483;-81
2022/05/22 08:18:08;;;;;;;4.60;2.53;;;26.50;99.90;;;;;;5018238;28;20026;-81
2022/05/22 08:20:36;;;;;;;2.97;2.63;;;26.40;99.90;;;;;;5027894;28;20032;-81
2022/05/22 08:23:06;;;;;;;8.65;2.88;;;26.30;99.90;;;;;;5022909;28;20040;-81
2022/05/22 08:25:32;;;;;;;4.45;2.50;;;26.20;99.90;;;;;;5035315;28;20021;-80
2022/05/22 08:27:58;;;;;;;3.58;2.50;;;26.30;99.90;;;;;;5042253;28;20028;-80
2022/05/22 08:30:27;;;;;;;4.65;2.42;;;26.20;99.90;;;;;;5036854;28;20606;-81
2022/05/22 08:32:53;;;;;;;4.72;2.40;;;26.30;99.90;;;;;;5021235;28;20075;-82
2022/05/22 08:35:24;;;;;;;6.38;2.60;;;26.30;99.90;;;;;;5020015;28;20025;-81
2022/05/22 08:37:51;;;;;;;5.68;2.60;;;26.30;99.90;;;;;;5037553;28;20036;-84
2022/05/22 08:40:20;;;;;;;5.38;2.33;;;26.40;99.90;;;;;;5032625;28;20064;-83
2022/05/22 08:42:54;;;;;;;6.57;2.22;;;26.40;99.90;;;;;;5037177;28;20033;-80
2022/05/22 08:45:28;;;;;;;3.33;2.25;;;26.40;99.90;;;;;;5027618;28;20029;-80
2022/05/22 08:47:59;;;;;;;3.67;2.03;;;26.50;99.90;;;;;;5041225;28;20391;-80
2022/05/22 08:50:27;;;;;;;4.22;2.10;;;26.60;99.90;;;;;;5035420;28;20045;-80
2022/05/22 08:53:17;;;;;;;9.77;2.55;;;26.70;99.90;;;;;;5040853;28;20034;-81
2022/05/22 08:58:57;;;;;;;2.53;2.30;;;26.60;99.90;;;;;;5038113;28;20036;-80
2022/05/22 09:01:47;;;;;;;3.45;2.30;;;26.60;99.90;;;;;;5037509;28;20514;-80
2022/05/22 09:04:31;;;;;;;4.03;2.58;;;26.60;99.90;;;;;;5039378;28;20100;-80
2022/05/22 09:07:31;;;;;;;8.88;2.38;;;26.70;99.90;;;;;;5040320;28;20027;-80
2022/05/22 09:10:43;;;;;;;6.65;2.40;;;26.80;99.90;;;;;;5034351;28;20022;-80
2022/05/22 09:13:30;;;;;;;3.20;2.42;;;26.90;99.90;;;;;;5018269;28;20484;-80
2022/05/22 09:16:00;;;;;;;6.78;2.22;;;26.90;99.90;;;;;;5042715;28;20033;-80
2022/05/22 09:18:46;;;;;;;2.75;2.00;;;27.00;99.90;;;;;;5021335;28;20123;-80
2022/05/22 09:21:41;;;;;;;7.85;2.30;;;27.10;99.90;;;;;;5035182;28;20040;-80
2022/05/22 09:24:35;;;;;;;4.95;2.10;;;27.30;99.90;;;;;;5042315;28;20499;-80
2022/05/22 09:27:08;;;;;;;7.40;2.40;;;27.50;99.90;;;;;;5036411;28;20044;-79
2022/05/22 09:30:10;;;;;;;3.88;2.47;;;27.60;99.90;;;;;;5044059;28;20480;-79
2022/05/22 09:33:08;;;;;;;13.43;3.00;;;27.70;99.90;;;;;;5033466;28;20037;-80
2022/05/22 09:35:39;;;;;;;4.35;2.47;;;27.70;99.90;;;;;;4991541;28;20079;-82
2022/05/22 09:38:35;;;;;;;3.10;2.80;;;27.90;99.90;;;;;;5041512;28;20527;-82
2022/05/22 09:41:14;;;;;;;4.57;2.20;;;28.10;99.90;;;;;;5035914;28;20503;-80
2022/05/22 09:43:53;;;;;;;4.97;2.20;;;28.30;99.90;;;;;;5038621;28;20043;-80
2022/05/22 09:46:43;;;;;;;10.10;2.60;;;28.50;99.90;;;;;;5020534;28;20442;-80
2022/05/22 09:49:22;;;;;;;3.88;2.78;;;28.60;99.90;;;;;;5035867;28;20056;-80
2022/05/22 09:51:50;;;;;;;8.65;3.35;;;28.60;99.90;;;;;;5041165;28;20115;-80
2022/05/22 09:54:34;;;;;;;2.90;2.60;;;28.60;99.90;;;;;;5026971;28;20029;-80
2022/05/22 09:57:13;;;;;;;4.55;2.60;;;28.50;99.90;;;;;;5038215;28;20023;-80
2022/05/22 10:00:08;;;;;;;12.00;2.80;;;28.40;99.90;;;;;;5034023;28;20060;-80
2022/05/22 10:02:55;;;;;;;6.57;3.00;;;28.50;99.90;;;;;;5003008;28;20519;-80
2022/05/22 10:05:42;;;;;;;3.15;2.60;;;28.60;99.90;;;;;;5040813;28;20048;-80
2022/05/22 10:08:45;;;;;;;4.93;2.70;;;28.80;99.90;;;;;;5038921;28;20548;-81
2022/05/22 10:11:25;;;;;;;6.65;3.03;;;28.80;99.90;;;;;;5038391;28;20025;-80
2022/05/22 10:13:59;;;;;;;8.30;2.90;;;28.80;99.90;;;;;;5023307;28;20029;-81
2022/05/22 10:16:55;;;;;;;5.57;2.78;;;28.60;99.90;;;;;;5040315;28;20025;-81
2022/05/22 10:19:52;;;;;;;4.28;2.95;;;28.70;99.90;;;;;;5033700;28;20507;-81
2022/05/22 10:22:38;;;;;;;5.13;3.00;;;28.80;99.90;;;;;;5020464;28;20045;-86
2022/05/22 10:25:28;;;;;;;4.22;3.10;;;29.00;99.90;;;;;;5027280;28;20133;-81
2022/05/22 10:28:02;;;;;;;9.85;2.90;;;28.80;99.90;;;;;;5034467;28;20107;-86
2022/05/22 10:30:43;;;;;;;8.05;3.38;;;28.80;99.90;;;;;;5043061;28;20017;-83
2022/05/22 10:33:13;;;;;;;6.28;3.17;;;28.80;99.90;;;;;;5026303;28;20057;-82
2022/05/22 10:35:45;;;;;;;4.20;3.20;;;28.80;99.90;;;;;;5035922;28;20029;-87
2022/05/22 10:38:20;;;;;;;3.55;2.70;;;28.90;99.90;;;;;;5023599;28;20175;-82
2022/05/22 10:43:46;;;;;;;4.40;3.72;;;29.10;99.90;;;;;;5040545;28;20056;-81
2022/05/22 10:46:12;;;;;;;5.40;3.60;;;29.20;99.90;;;;;;5038527;28;20558;-82
2022/05/22 10:48:55;;;;;;;4.53;3.10;;;29.20;99.90;;;;;;5027601;28;20052;-81
2022/05/22 10:51:27;;;;;;;5.85;3.92;;;29.40;99.90;;;;;;5022329;28;20042;-79
2022/05/22 10:53:58;;;;;;;5.15;3.40;;;29.60;99.90;;;;;;5041489;28;20040;-81
2022/05/22 10:56:30;;;;;;;8.60;3.40;;;29.80;99.90;;;;;;5024918;28;20025;-83
2022/05/22 10:59:05;;;;;;;10.20;4.90;;;29.90;99.90;;;;;;5022631;28;20029;-83
2022/05/22 11:01:40;;;;;;;4.03;3.55;;;29.60;99.90;;;;;;5024956;28;20044;-82
2022/05/22 11:04:13;;;;;;;6.43;3.60;;;29.30;99.90;;;;;;5044801;28;20430;-84
2022/05/22 11:07:01;;;;;;;4.60;3.38;;;29.10;99.90;;;;;;5023373;28;20038;-81
2022/05/22 11:09:34;;;;;;;5.75;4.00;;;29.20;99.90;;;;;;5037527;28;20029;-81
2022/05/22 11:12:08;;;;;;;7.60;3.28;;;29.70;99.90;;;;;;5024769;28;20039;-87
2022/05/22 11:14:35;;;;;;;10.82;3.50;;;30.20;99.90;;;;;;5022138;28;20063;-84
2022/05/22 11:17:27;;;;;;;6.95;2.85;;;30.80;99.90;;;;;;5024580;28;20052;-84
2022/05/22 11:19:57;;;;;;;7.60;3.28;;;31.10;99.90;;;;;;5031727;28;20515;-83
2022/05/22 11:23:03;;;;;;;6.07;3.40;;;31.10;99.90;;;;;;5023935;28;20113;-85
2022/05/22 11:25:40;;;;;;;7.30;3.42;;;31.00;99.90;;;;;;5038166;28;20017;-83
2022/05/22 11:28:42;;;;;;;5.68;3.30;;;30.40;99.90;;;;;;5039979;28;20116;-81
2022/05/22 11:31:36;;;;;;;5.30;3.60;;;29.80;99.90;;;;;;5020626;28;20036;-80
2022/05/22 11:34:24;;;;;;;12.02;4.18;;;29.60;99.90;;;;;;5013013;28;20488;-81
2022/05/22 11:36:59;;;;;;;5.45;3.45;;;29.40;99.90;;;;;;5043132;28;20033;-82
2022/05/22 11:39:52;;;;;;;10.07;4.57;;;29.20;99.90;;;;;;5028301;28;20029;-81
2022/05/22 11:42:37;;;;;;;7.47;3.90;;;28.90;99.90;;;;;;5038999;28;20065;-80
2022/05/22 11:45:09;;;;;;;6.05;4.50;;;28.80;99.90;;;;;;5028650;28;20063;-80
2022/05/22 11:47:56;;;;;;;8.02;5.45;;;28.70;99.90;;;;;;5023629;28;20061;-81
2022/05/22 11:50:30;;;;;;;8.38;3.08;;;28.90;99.90;;;;;;5037498;28;20042;-81
2022/05/22 11:53:14;;;;;;;4.00;3.13;;;29.30;99.90;;;;;;5042493;28;20024;-80
2022/05/22 11:55:58;;;;;;;5.63;3.00;;;28.90;99.90;;;;;;5042018;28;20096;-81
2022/05/22 11:58:48;;;;;;;4.97;2.97;;;28.50;99.90;;;;;;5019043;28;20076;-79
2022/05/22 12:01:38;;;;;;;5.68;3.00;;;28.00;99.90;;;;;;5040893;28;20025;-79
2022/05/22 12:04:25;;;;;;;4.47;3.30;;;28.10;99.90;;;;;;5044415;28;20037;-80
2022/05/22 12:07:25;;;;;;;9.32;4.40;;;28.60;99.90;;;;;;5040492;28;20039;-80
2022/05/22 12:10:14;;;;;;;9.23;4.07;;;29.20;99.90;;;;;;5020228;28;20031;-79
2022/05/22 12:13:02;;;;;;;11.45;3.92;;;28.70;99.90;;;;;;5042650;28;20033;-79
2022/05/22 12:15:28;;;;;;;11.13;4.00;;;28.50;99.90;;;;;;5037808;28;20387;-80
2022/05/22 12:18:24;;;;;;;11.77;3.88;;;29.30;99.90;;;;;;5023596;28;20033;-79
2022/05/22 12:21:15;;;;;;;12.75;3.70;;;29.80;99.90;;;;;;5032581;28;20029;-80
2022/05/22 12:23:55;;;;;;;6.82;4.53;;;29.70;99.90;;;;;;5042935;28;20037;-80
2022/05/22 12:26:24;;;;;;;12.70;5.28;;;30.20;99.90;;;;;;5025850;28;20030;-79
2022/05/22 12:28:55;;;;;;;8.35;4.50;;;29.70;99.90;;;;;;5020245;28;20480;-80
2022/05/22 12:31:42;;;;;;;14.20;4.78;;;29.60;99.90;;;;;;5040816;28;20071;-82
2022/05/22 12:34:15;;;;;;;11.07;5.63;;;29.50;99.90;;;;;;5044720;28;20040;-80
2022/05/22 12:36:47;;;;;;;11.98;4.90;;;29.20;99.90;;;;;;5042096;28;20028;-80
2022/05/22 12:39:18;;;;;;;10.38;5.40;;;29.40;99.90;;;;;;5019850;28;20025;-79
2022/05/22 12:41:52;;;;;;;10.68;5.22;;;30.00;99.90;;;;;;5042391;28;20028;-79
2022/05/22 12:44:19;;;;;;;11.45;4.43;;;30.50;99.90;;;;;;5046225;28;20078;-79
2022/05/22 12:46:46;;;;;;;9.40;4.60;;;31.50;99.90;;;;;;5040862;28;20017;-79
2022/05/22 12:49:24;;;;;;;7.85;4.55;;;32.60;99.90;;;;;;5027517;28;20065;-79
2022/05/22 12:52:01;;;;;;;13.20;4.72;;;32.20;99.90;;;;;;5022521;28;20613;-79
2022/05/22 12:54:30;;;;;;;6.93;4.32;;;33.40;99.90;;;;;;5045971;28;20032;-79
2022/05/22 12:57:10;;;;;;;9.32;3.92;;;34.50;99.90;;;;;;5039438;28;20095;-79
2022/05/22 12:59:37;;;;;;;5.45;4.35;;;34.30;99.90;;;;;;5043112;28;20036;-80
2022/05/22 13:02:04;;;;;;;8.55;4.43;;;33.90;99.90;;;;;;5041570;28;20029;-79
2022/05/22 13:04:37;;;;;;;10.82;5.20;;;33.10;99.90;;;;;;5037522;28;20088;-80
2022/05/22 13:07:17;;;;;;;8.52;4.88;;;32.10;99.90;;;;;;5041398;28;20049;-80
2022/05/22 13:09:51;;;;;;;7.82;4.63;;;31.10;99.90;;;;;;5044826;28;20078;-80
2022/05/22 13:12:16;;;;;;;11.60;5.32;;;30.90;99.90;;;;;;5041082;28;20039;-80
2022/05/22 13:14:55;;;;;;;6.32;4.15;;;31.10;99.90;;;;;;5044919;28;20391;-80
2022/05/22 13:17:50;;;;;;;5.35;4.03;;;32.60;99.90;;;;;;5038589;28;20013;-81